createdAt,value
2019-02-18T00:02:01.740Z,0.10
2019-02-18T00:06:58.208Z,0.20
2019-02-18T00:09:26.609Z,0.20
2019-02-18T00:11:55.000Z,0.30
2019-02-18T00:14:23.415Z,0.30
2019-02-18T00:16:51.808Z,0.30
2019-02-18T00:19:20.215Z,0.30
2019-02-18T00:24:16.756Z,0.30
2019-02-18T00:26:45.164Z,0.30
2019-02-18T00:29:13.560Z,0.30
2019-02-18T00:31:41.965Z,0.30
2019-02-18T00:34:10.358Z,0.30
2019-02-18T00:36:38.763Z,0.30
2019-02-18T00:39:07.156Z,0.20
2019-02-18T00:41:35.664Z,0.10
2019-02-18T00:44:04.058Z,0.10
2019-02-18T00:49:00.539Z,0.00
2019-02-18T00:51:28.938Z,-0.10
2019-02-18T00:53:57.345Z,-0.20
2019-02-18T00:56:25.977Z,-0.20
2019-02-18T00:58:54.445Z,-0.30
2019-02-18T01:01:22.857Z,-0.20
2019-02-18T01:03:51.340Z,-0.20
2019-02-18T01:08:47.897Z,-0.30
2019-02-18T01:11:16.302Z,-0.20
2019-02-18T01:13:44.795Z,-0.30
2019-02-18T01:16:13.200Z,-0.10
2019-02-18T01:18:41.601Z,-0.10
2019-02-18T01:21:10.008Z,-0.10
2019-02-18T01:26:06.487Z,-0.10
2019-02-18T01:31:02.965Z,-0.40
2019-02-18T01:33:31.360Z,-0.40
2019-02-18T01:35:59.773Z,-0.50
2019-02-18T01:38:28.265Z,-0.60
2019-02-18T01:40:56.736Z,-0.70
2019-02-18T01:43:25.136Z,-0.70
2019-02-18T01:45:53.689Z,-0.70
2019-02-18T01:48:22.097Z,-0.70
2019-02-18T01:50:50.496Z,-0.70
2019-02-18T01:53:18.898Z,-0.70
2019-02-18T01:55:47.301Z,-0.80
2019-02-18T01:58:15.971Z,-0.90
2019-02-18T02:00:44.380Z,-0.90
2019-02-18T02:03:12.783Z,-0.90
2019-02-18T02:05:41.194Z,-0.80
2019-02-18T02:08:09.588Z,-0.80
2019-02-18T02:10:37.992Z,-0.90
2019-02-18T02:13:26.747Z,-1.00
2019-02-18T02:15:55.525Z,-1.00
2019-02-18T02:20:52.010Z,-1.10
2019-02-18T02:23:20.405Z,-1.20
2019-02-18T02:28:16.887Z,-1.20
2019-02-18T02:30:45.289Z,-1.20
2019-02-18T02:33:13.703Z,-1.30
2019-02-18T02:35:42.100Z,-1.20
2019-02-18T02:38:10.562Z,-1.10
2019-02-18T02:43:07.091Z,-1.40
2019-02-18T02:45:35.518Z,-1.60
2019-02-18T02:48:03.988Z,-1.60
2019-02-18T02:53:00.464Z,-1.50
2019-02-18T02:55:28.865Z,-1.30
2019-02-18T02:57:57.273Z,-1.30
2019-02-18T03:00:25.772Z,-1.40
2019-02-18T03:02:54.218Z,-1.40
2019-02-18T03:07:51.166Z,-1.30
2019-02-18T03:10:19.565Z,-1.20
2019-02-18T03:15:16.040Z,-1.20
2019-02-18T03:17:44.808Z,-1.20
2019-02-18T03:20:13.487Z,-1.20
2019-02-18T03:22:41.881Z,-1.30
2019-02-18T03:25:24.522Z,-1.40
2019-02-18T03:27:56.338Z,-1.40
2019-02-18T03:30:56.542Z,-1.40
2019-02-18T03:33:39.865Z,-1.50
2019-02-18T03:36:08.322Z,-1.60
2019-02-18T03:38:36.728Z,-1.60
2019-02-18T03:41:05.397Z,-1.70
2019-02-18T03:43:34.080Z,-1.80
2019-02-18T03:46:02.484Z,-1.80
2019-02-18T03:53:29.973Z,-1.90
2019-02-18T03:55:58.380Z,-1.90
2019-02-18T04:03:22.960Z,-2.00
2019-02-18T04:05:51.362Z,-2.00
2019-02-18T04:11:33.300Z,-2.00
2019-02-18T04:14:01.746Z,-2.10
2019-02-18T04:18:58.295Z,-2.10
2019-02-18T04:21:26.800Z,-2.20
2019-02-18T04:23:55.312Z,-2.20
2019-02-18T04:26:23.701Z,-2.20
2019-02-18T04:28:52.110Z,-2.20
2019-02-18T04:31:20.510Z,-2.30
2019-02-18T04:33:48.915Z,-2.20
2019-02-18T04:36:17.362Z,-2.20
2019-02-18T04:41:15.551Z,-2.20
2019-02-18T04:43:43.956Z,-2.30
2019-02-18T04:46:12.349Z,-2.20
2019-02-18T04:48:40.783Z,-2.10
2019-02-18T04:51:09.236Z,-2.20
2019-02-18T04:53:37.625Z,-2.30
2019-02-18T04:56:06.050Z,-2.40
2019-02-18T04:58:34.467Z,-2.40
2019-02-18T05:01:03.115Z,-2.50
2019-02-18T05:03:31.749Z,-2.50
2019-02-18T05:06:00.162Z,-2.50
2019-02-18T05:10:56.636Z,-2.60
2019-02-18T05:13:25.031Z,-2.50
2019-02-18T05:15:53.446Z,-2.50
2019-02-18T05:18:21.837Z,-2.50
2019-02-18T05:20:50.288Z,-2.50
2019-02-18T05:23:18.684Z,-2.40
2019-02-18T05:25:47.240Z,-2.40
2019-02-18T05:28:15.637Z,-2.50
2019-02-18T05:30:44.041Z,-2.50
2019-02-18T05:33:12.501Z,-2.60
2019-02-18T05:35:40.901Z,-2.70
2019-02-18T05:40:37.410Z,-2.70
2019-02-18T05:45:33.942Z,-2.80
2019-02-18T05:52:59.606Z,-2.90
2019-02-18T05:55:28.029Z,-2.90
2019-02-18T05:57:56.447Z,-2.80
2019-02-18T06:00:24.890Z,-2.70
2019-02-18T06:02:53.326Z,-2.60
2019-02-18T06:05:21.868Z,-2.70
2019-02-18T06:07:50.265Z,-2.80
2019-02-18T06:10:18.670Z,-2.90
2019-02-18T06:12:47.244Z,-3.00
2019-02-18T06:17:43.763Z,-3.00
2019-02-18T06:22:40.241Z,-3.00
2019-02-18T06:25:08.824Z,-3.00
2019-02-18T06:27:37.230Z,-2.90
2019-02-18T06:30:08.666Z,-2.80
2019-02-18T06:35:06.999Z,-2.90
2019-02-18T06:37:35.412Z,-2.90
2019-02-18T06:40:04.732Z,-2.70
2019-02-18T06:45:02.942Z,-2.60
2019-02-18T06:47:31.371Z,-2.50
2019-02-18T06:49:59.764Z,-2.50
2019-02-18T06:52:28.167Z,-2.50
2019-02-18T06:54:56.569Z,-2.50
2019-02-18T06:57:26.616Z,-2.50
2019-02-18T06:59:55.089Z,-2.50
2019-02-18T07:04:57.562Z,-2.20
2019-02-18T07:07:36.291Z,-1.80
2019-02-18T07:10:22.075Z,-1.00
2019-02-18T07:12:50.479Z,-0.20
2019-02-18T07:15:18.931Z,0.30
2019-02-18T07:17:47.344Z,0.80
2019-02-18T07:27:39.962Z,1.80
2019-02-18T07:32:38.246Z,2.30
2019-02-18T07:35:06.768Z,2.50
2019-02-18T07:37:35.170Z,2.70
2019-02-18T07:40:04.633Z,2.70
2019-02-18T07:45:01.141Z,3.00
2019-02-18T07:47:29.531Z,3.10
2019-02-18T07:49:57.924Z,3.10
2019-02-18T07:52:26.366Z,3.00
2019-02-18T07:54:54.756Z,3.10
2019-02-18T07:57:23.169Z,3.20
2019-02-18T07:59:51.556Z,3.20
2019-02-18T08:02:19.970Z,3.20
2019-02-18T08:07:16.452Z,3.30
2019-02-18T08:09:44.852Z,3.50
2019-02-18T08:12:13.289Z,3.60
2019-02-18T08:14:41.726Z,3.70
2019-02-18T08:17:10.160Z,3.80
2019-02-18T08:19:38.604Z,4.00
2019-02-18T08:22:07.084Z,4.10
2019-02-18T08:27:03.620Z,4.40
2019-02-18T08:29:32.025Z,4.70
2019-02-18T08:32:00.420Z,4.90
2019-02-18T08:34:28.861Z,5.00
2019-02-18T08:36:57.380Z,5.30
2019-02-18T08:39:25.784Z,5.40
2019-02-18T08:42:13.524Z,5.60
2019-02-18T08:44:41.928Z,5.90
2019-02-18T08:47:10.328Z,6.10
2019-02-18T08:49:38.829Z,6.20
2019-02-18T08:52:07.266Z,6.40
2019-02-18T08:54:35.664Z,6.50
2019-02-18T08:57:04.097Z,6.60
2019-02-18T08:59:32.496Z,6.90
2019-02-18T09:02:00.901Z,7.20
2019-02-18T09:04:48.745Z,7.30
2019-02-18T09:07:17.143Z,7.30
2019-02-18T09:09:45.650Z,7.50
2019-02-18T09:12:14.042Z,7.70
2019-02-18T09:14:42.487Z,7.90
2019-02-18T09:19:38.948Z,8.60
2019-02-18T09:22:09.065Z,8.90
2019-02-18T09:24:42.044Z,9.20
2019-02-18T09:27:10.475Z,9.60
2019-02-18T09:29:38.876Z,9.80
2019-02-18T09:32:07.307Z,9.90
2019-02-18T09:34:35.708Z,10.20
2019-02-18T09:37:04.178Z,10.40
2019-02-18T09:39:32.591Z,10.80
2019-02-18T09:42:00.980Z,11.00
2019-02-18T09:44:29.392Z,11.10
2019-02-18T09:46:57.797Z,11.10
2019-02-18T09:49:26.260Z,11.20
2019-02-18T09:51:54.663Z,11.10
2019-02-18T09:54:23.224Z,11.20
2019-02-18T09:56:51.663Z,11.30
2019-02-18T09:59:20.068Z,11.60
2019-02-18T10:01:48.473Z,11.60
2019-02-18T10:04:16.875Z,11.60
2019-02-18T10:06:45.328Z,12.00
2019-02-18T10:11:41.784Z,12.80
2019-02-18T10:16:38.296Z,13.60
2019-02-18T10:19:06.698Z,13.80
2019-02-18T10:21:35.150Z,14.10
2019-02-18T10:24:03.546Z,14.10
2019-02-18T10:26:31.952Z,14.10
2019-02-18T10:29:00.352Z,14.30
2019-02-18T10:33:56.869Z,14.20
2019-02-18T10:36:25.274Z,14.40
2019-02-18T10:43:49.832Z,14.90
2019-02-18T10:46:18.252Z,15.20
2019-02-18T10:48:46.656Z,15.70
2019-02-18T10:51:15.064Z,16.20
2019-02-18T10:53:43.471Z,16.60
2019-02-18T10:56:12.195Z,16.90
2019-02-18T10:58:40.588Z,17.20
2019-02-18T11:03:37.113Z,16.90
2019-02-18T11:06:05.587Z,16.80
2019-02-18T11:11:02.141Z,16.90
2019-02-18T11:13:30.540Z,16.80
2019-02-18T11:15:58.962Z,16.70
2019-02-18T11:18:27.359Z,15.80
2019-02-18T11:20:55.764Z,14.90
2019-02-18T11:23:24.474Z,13.90
2019-02-18T11:25:52.994Z,12.90
2019-02-18T11:28:21.426Z,12.30
2019-02-18T11:30:49.857Z,11.80
2019-02-18T11:33:18.251Z,11.50
2019-02-18T11:35:46.709Z,11.30
2019-02-18T11:40:43.378Z,11.10
2019-02-18T11:43:11.772Z,11.10
2019-02-18T11:45:40.164Z,11.10
2019-02-18T11:48:08.576Z,11.10
2019-02-18T11:50:36.977Z,11.20
2019-02-18T11:55:33.494Z,11.30
2019-02-18T11:58:01.905Z,11.40
2019-02-18T12:03:03.140Z,11.40
2019-02-18T12:07:56.689Z,11.40
2019-02-18T12:10:25.298Z,11.50
2019-02-18T12:15:23.667Z,11.50
2019-02-18T12:17:52.072Z,11.50
2019-02-18T12:20:20.473Z,11.50
2019-02-18T12:22:48.922Z,11.60
2019-02-18T12:25:17.394Z,11.70
2019-02-18T12:27:45.800Z,11.70
2019-02-18T12:32:43.964Z,11.70
2019-02-18T12:35:12.589Z,11.70
2019-02-18T12:37:41.003Z,11.60
2019-02-18T12:40:11.445Z,11.70
2019-02-18T12:42:42.174Z,11.70
2019-02-18T12:45:11.816Z,11.80
2019-02-18T12:47:40.303Z,11.80
2019-02-18T12:50:10.909Z,11.80
2019-02-18T12:52:39.444Z,12.00
2019-02-18T12:55:09.672Z,12.00
2019-02-18T13:00:16.204Z,12.20
2019-02-18T13:02:45.324Z,12.10
2019-02-18T13:05:14.340Z,12.10
2019-02-18T13:07:42.806Z,12.00
2019-02-18T13:10:12.026Z,12.00
2019-02-18T13:12:41.087Z,12.00
2019-02-18T13:15:17.369Z,12.00
2019-02-18T13:17:45.959Z,12.00
2019-02-18T13:22:42.584Z,12.10
2019-02-18T13:25:11.156Z,12.10
2019-02-18T13:27:39.683Z,12.10
2019-02-18T13:30:11.131Z,12.10
2019-02-18T13:32:39.607Z,12.00
2019-02-18T13:35:08.044Z,12.00
2019-02-18T13:37:36.452Z,12.00
2019-02-18T13:40:05.603Z,12.00
2019-02-18T13:42:34.042Z,12.00
2019-02-18T13:47:30.896Z,12.10
2019-02-18T13:49:59.335Z,12.00
2019-02-18T13:52:27.821Z,12.00
2019-02-18T13:54:56.269Z,12.00
2019-02-18T13:57:24.740Z,12.00
2019-02-18T14:02:21.228Z,12.00
2019-02-18T14:04:49.636Z,12.00
2019-02-18T14:07:18.034Z,12.00
2019-02-18T14:09:46.440Z,12.00
2019-02-18T14:12:16.393Z,12.00
2019-02-18T14:14:45.023Z,12.00
2019-02-18T14:17:13.892Z,12.00
2019-02-18T14:19:42.304Z,12.00
2019-02-18T14:22:10.700Z,11.90
2019-02-18T14:24:39.115Z,11.80
2019-02-18T14:27:07.508Z,11.80
2019-02-18T14:29:36.092Z,11.90
2019-02-18T14:32:05.009Z,11.80
2019-02-18T14:34:33.415Z,11.80
2019-02-18T14:39:30.473Z,11.60
2019-02-18T14:41:58.921Z,11.60
2019-02-18T14:44:27.357Z,11.60
2019-02-18T14:46:55.755Z,11.50
2019-02-18T14:49:24.164Z,11.50
2019-02-18T14:51:52.632Z,11.50
2019-02-18T14:54:21.207Z,11.40
2019-02-18T14:56:49.604Z,11.40
2019-02-18T14:59:18.020Z,11.40
2019-02-18T15:01:46.860Z,11.30
2019-02-18T15:04:15.587Z,11.30
2019-02-18T15:06:44.059Z,11.20
2019-02-18T15:09:12.487Z,11.10
2019-02-18T15:11:40.945Z,11.00
2019-02-18T15:14:09.519Z,10.90
2019-02-18T15:16:37.924Z,10.80
2019-02-18T15:24:02.668Z,10.80
2019-02-18T15:26:31.476Z,10.80
2019-02-18T15:28:59.956Z,10.80
2019-02-18T15:31:28.372Z,10.60
2019-02-18T15:36:25.216Z,10.40
2019-02-18T15:41:22.026Z,10.40
2019-02-18T15:43:50.599Z,10.20
2019-02-18T15:46:19.106Z,10.00
2019-02-18T15:53:43.656Z,9.60
2019-02-18T15:56:12.048Z,9.60
2019-02-18T15:58:40.466Z,9.40
2019-02-18T16:01:08.873Z,9.30
2019-02-18T16:03:37.337Z,9.30
2019-02-18T16:06:05.787Z,9.30
2019-02-18T16:08:34.552Z,9.30
2019-02-18T16:11:03.073Z,9.30
2019-02-18T16:13:31.456Z,9.30
2019-02-18T16:18:28.050Z,9.10
2019-02-18T16:20:56.458Z,9.10
2019-02-18T16:23:24.853Z,9.00
2019-02-18T16:25:53.295Z,8.90
2019-02-18T16:28:21.760Z,8.80
2019-02-18T16:30:50.244Z,8.80
2019-02-18T16:35:46.727Z,8.60
2019-02-18T16:38:15.194Z,8.60
2019-02-18T16:40:43.676Z,8.50
2019-02-18T16:43:12.071Z,8.50
2019-02-18T16:45:40.480Z,8.30
2019-02-18T16:48:09.725Z,8.10
2019-02-18T16:50:38.134Z,8.00
2019-02-18T16:53:06.520Z,7.80
2019-02-18T16:55:35.244Z,7.70
2019-02-18T17:00:33.527Z,7.60
2019-02-18T17:03:01.967Z,7.40
2019-02-18T17:05:30.452Z,7.40
2019-02-18T17:07:58.848Z,7.40
2019-02-18T17:10:28.780Z,7.30
2019-02-18T17:12:57.212Z,7.20
2019-02-18T17:15:25.684Z,7.10
2019-02-18T17:17:54.144Z,7.10
2019-02-18T17:20:22.550Z,7.00
2019-02-18T17:22:51.053Z,6.80
2019-02-18T17:25:20.063Z,6.70
2019-02-18T17:27:48.941Z,6.50
2019-02-18T17:32:45.441Z,6.30
2019-02-18T17:37:42.484Z,6.10
2019-02-18T17:42:40.439Z,6.00
2019-02-18T17:47:43.606Z,5.80
2019-02-18T17:50:14.116Z,5.70
2019-02-18T17:57:40.363Z,5.70
2019-02-18T18:00:15.237Z,5.60
2019-02-18T18:02:43.634Z,5.50
2019-02-18T18:05:12.229Z,5.60
2019-02-18T18:07:40.700Z,5.50
2019-02-18T18:10:11.600Z,5.40
2019-02-18T18:15:11.056Z,5.10
2019-02-18T18:17:39.732Z,5.00
2019-02-18T18:20:13.154Z,4.90
2019-02-18T18:27:57.534Z,4.70
2019-02-18T18:32:54.111Z,4.60
2019-02-18T18:37:51.192Z,4.40
2019-02-18T18:40:20.474Z,4.40
2019-02-18T18:45:18.592Z,4.40
2019-02-18T18:47:47.090Z,4.30
2019-02-18T18:52:47.653Z,4.10
2019-02-18T18:55:16.080Z,4.10
2019-02-18T18:57:44.487Z,4.20
2019-02-18T19:02:43.867Z,4.20
2019-02-18T19:07:40.778Z,3.80
2019-02-18T19:12:37.797Z,3.60
2019-02-18T19:15:14.216Z,3.50
2019-02-18T19:17:42.621Z,3.40
2019-02-18T19:20:11.761Z,3.40
2019-02-18T19:22:40.336Z,3.40
2019-02-18T19:25:10.206Z,3.30
2019-02-18T19:27:38.604Z,3.30
2019-02-18T19:30:15.944Z,3.20
2019-02-18T19:32:44.347Z,3.10
2019-02-18T19:35:12.779Z,3.00
2019-02-18T19:37:41.175Z,2.90
2019-02-18T19:40:11.712Z,2.90
2019-02-18T19:42:40.188Z,2.80
2019-02-18T19:45:17.260Z,2.70
2019-02-18T19:47:45.904Z,2.70
2019-02-18T19:50:14.296Z,2.80
2019-02-18T19:52:42.694Z,2.80
2019-02-18T19:55:12.628Z,2.80
2019-02-18T20:00:19.762Z,2.50
2019-02-18T20:02:48.504Z,2.50
2019-02-18T20:07:45.065Z,2.50
2019-02-18T20:12:41.834Z,2.30
2019-02-18T20:15:13.574Z,2.20
2019-02-18T20:20:15.712Z,2.20
2019-02-18T20:22:44.459Z,2.10
2019-02-18T20:25:13.115Z,2.00
2019-02-18T20:27:41.608Z,2.10
2019-02-18T20:30:13.011Z,2.10
2019-02-18T20:32:41.410Z,2.10
2019-02-18T20:35:10.737Z,2.20
2019-02-18T20:37:39.170Z,2.00
2019-02-18T20:40:09.411Z,1.90
2019-02-18T20:42:57.742Z,1.80
2019-02-18T20:47:54.191Z,1.80
2019-02-18T20:50:22.606Z,1.80
2019-02-18T20:52:51.034Z,1.70
2019-02-18T20:55:20.290Z,1.70
2019-02-18T20:57:48.766Z,1.70
2019-02-18T21:00:19.399Z,1.70
2019-02-18T21:02:48.068Z,1.60
2019-02-18T21:05:16.528Z,1.60
2019-02-18T21:10:16.662Z,1.60
2019-02-18T21:12:45.459Z,1.50
2019-02-18T21:15:13.916Z,1.40
2019-02-18T21:17:42.352Z,1.40
2019-02-18T21:20:12.541Z,1.40
2019-02-18T21:22:41.120Z,1.40
2019-02-18T21:25:10.668Z,1.40
2019-02-18T21:27:39.052Z,1.30
2019-02-18T21:30:13.312Z,1.30
2019-02-18T21:32:41.772Z,1.30
2019-02-18T21:35:10.248Z,1.10
2019-02-18T21:42:36.574Z,1.00
2019-02-18T21:45:07.687Z,1.00
2019-02-18T21:50:06.096Z,1.00
2019-02-18T21:52:34.491Z,0.90
2019-02-18T21:55:02.999Z,0.90
2019-02-18T21:57:31.439Z,0.80
2019-02-18T21:59:59.839Z,0.80
2019-02-18T22:04:56.316Z,0.70
2019-02-18T22:07:24.746Z,0.70
2019-02-18T22:09:53.612Z,0.70
2019-02-18T22:12:22.029Z,0.60
2019-02-18T22:14:50.642Z,0.60
2019-02-18T22:17:19.078Z,0.50
2019-02-18T22:19:47.510Z,0.50
2019-02-18T22:22:15.908Z,0.50
2019-02-18T22:24:44.394Z,0.40
2019-02-18T22:27:13.407Z,0.40
2019-02-18T22:32:09.889Z,0.40
2019-02-18T22:34:38.314Z,0.30
2019-02-18T22:37:06.725Z,0.30
2019-02-18T22:39:35.120Z,0.30
2019-02-18T22:42:03.566Z,0.30
2019-02-18T22:44:32.424Z,0.20
2019-02-18T22:47:00.828Z,0.10
2019-02-18T22:49:29.228Z,0.10
2019-02-18T22:51:57.709Z,0.10
2019-02-18T22:56:54.187Z,0.20
2019-02-18T22:59:22.582Z,0.20
2019-02-18T23:01:50.976Z,0.10
2019-02-18T23:04:19.376Z,0.10
2019-02-18T23:09:16.059Z,0.00
2019-02-18T23:11:44.468Z,-0.10
2019-02-18T23:14:12.869Z,-0.10
2019-02-18T23:16:41.276Z,-0.20
2019-02-18T23:19:09.836Z,-0.10
2019-02-18T23:21:38.240Z,0.00
2019-02-18T23:24:06.676Z,-0.10
2019-02-18T23:26:35.152Z,0.00
2019-02-18T23:29:03.544Z,0.00
2019-02-18T23:31:31.984Z,0.00
2019-02-18T23:34:00.948Z,0.10
2019-02-18T23:38:57.421Z,0.20
2019-02-18T23:41:25.824Z,0.20
2019-02-18T23:43:54.231Z,0.20
2019-02-18T23:46:22.667Z,0.30
2019-02-18T23:48:51.164Z,0.30
2019-02-18T23:51:19.587Z,0.30
2019-02-18T23:53:47.984Z,0.40
2019-02-18T23:56:16.593Z,0.40
2019-02-18T23:58:44.999Z,0.40
